sensor_id;sensor_type;location;lat;lon;timestamp;P1;durP1;ratioP1;P2;durP2;ratioP2
48871;SDS011;36154;51.674;7.824;2023-03-23T00:01:10;0.10;;;0.10;;
48871;SDS011;36154;51.674;7.824;2023-03-23T00:03:38;0.10;;;0.10;;
48871;SDS011;36154;51.674;7.824;2023-03-23T00:06:03;0.10;;;0.10;;
48871;SDS011;36154;51.674;7.824;2023-03-23T00:08:33;0.10;;;0.10;;
48871;SDS011;36154;51.674;7.824;2023-03-23T00:11:09;0.05;;;0.05;;
48871;SDS011;36154;51.674;7.824;2023-03-23T00:13:35;0.13;;;0.10;;
48871;SDS011;36154;51.674;7.824;2023-03-23T00:16:01;0.35;;;0.10;;
48871;SDS011;36154;51.674;7.824;2023-03-23T00:18:26;0.00;;;0.00;;
48871;SDS011;36154;51.674;7.824;2023-03-23T00:20:53;0.13;;;0.10;;
48871;SDS011;36154;51.674;7.824;2023-03-23T00:23:21;0.10;;;0.10;;
48871;SDS011;36154;51.674;7.824;2023-03-23T00:25:52;0.10;;;0.10;;
48871;SDS011;36154;51.674;7.824;2023-03-23T00:28:23;0.05;;;0.05;;
48871;SDS011;36154;51.674;7.824;2023-03-23T00:33:22;0.10;;;0.10;;
48871;SDS011;36154;51.674;7.824;2023-03-23T00:35:49;0.10;;;0.10;;
48871;SDS011;36154;51.674;7.824;2023-03-23T00:38:17;0.10;;;0.10;;
48871;SDS011;36154;51.674;7.824;2023-03-23T00:40:49;0.10;;;0.10;;
48871;SDS011;36154;51.674;7.824;2023-03-23T00:43:16;0.00;;;0.00;;
48871;SDS011;36154;51.674;7.824;2023-03-23T00:45:43;0.10;;;0.10;;
48871;SDS011;36154;51.674;7.824;2023-03-23T00:48:18;0.08;;;0.08;;
48871;SDS011;36154;51.674;7.824;2023-03-23T00:50:44;0.65;;;0.10;;
48871;SDS011;36154;51.674;7.824;2023-03-23T00:53:10;0.10;;;0.10;;
48871;SDS011;36154;51.674;7.824;2023-03-23T00:55:35;0.00;;;0.00;;
48871;SDS011;36154;51.674;7.824;2023-03-23T00:58:00;0.10;;;0.10;;
48871;SDS011;36154;51.674;7.824;2023-03-23T01:00:26;0.00;;;0.00;;
48871;SDS011;36154;51.674;7.824;2023-03-23T01:02:52;0.00;;;0.00;;
48871;SDS011;36154;51.674;7.824;2023-03-23T01:05:18;0.10;;;0.10;;
48871;SDS011;36154;51.674;7.824;2023-03-23T01:07:44;0.10;;;0.00;;
48871;SDS011;36154;51.674;7.824;2023-03-23T01:10:11;0.00;;;0.00;;
48871;SDS011;36154;51.674;7.824;2023-03-23T01:12:40;0.10;;;0.10;;
48871;SDS011;36154;51.674;7.824;2023-03-23T01:15:08;0.13;;;0.13;;
48871;SDS011;36154;51.674;7.824;2023-03-23T01:17:37;0.10;;;0.10;;
48871;SDS011;36154;51.674;7.824;2023-03-23T01:20:03;0.17;;;0.08;;
48871;SDS011;36154;51.674;7.824;2023-03-23T01:22:31;0.00;;;0.00;;
48871;SDS011;36154;51.674;7.824;2023-03-23T01:24:57;0.00;;;0.00;;
48871;SDS011;36154;51.674;7.824;2023-03-23T01:27:22;0.00;;;0.00;;
48871;SDS011;36154;51.674;7.824;2023-03-23T01:29:48;0.10;;;0.10;;
48871;SDS011;36154;51.674;7.824;2023-03-23T01:32:13;0.00;;;0.00;;
48871;SDS011;36154;51.674;7.824;2023-03-23T01:34:38;0.00;;;0.00;;
48871;SDS011;36154;51.674;7.824;2023-03-23T01:37:03;0.20;;;0.08;;
48871;SDS011;36154;51.674;7.824;2023-03-23T01:39:29;0.10;;;0.10;;
48871;SDS011;36154;51.674;7.824;2023-03-23T01:41:54;0.00;;;0.00;;
48871;SDS011;36154;51.674;7.824;2023-03-23T01:46:45;0.00;;;0.00;;
48871;SDS011;36154;51.674;7.824;2023-03-23T01:49:11;0.10;;;0.10;;
48871;SDS011;36154;51.674;7.824;2023-03-23T01:51:41;0.22;;;0.10;;
48871;SDS011;36154;51.674;7.824;2023-03-23T01:54:12;0.08;;;0.08;;
48871;SDS011;36154;51.674;7.824;2023-03-23T01:56:45;0.10;;;0.10;;
48871;SDS011;36154;51.674;7.824;2023-03-23T01:59:15;0.10;;;0.10;;
48871;SDS011;36154;51.674;7.824;2023-03-23T02:01:41;0.00;;;0.00;;
48871;SDS011;36154;51.674;7.824;2023-03-23T02:04:10;0.10;;;0.10;;
48871;SDS011;36154;51.674;7.824;2023-03-23T02:06:39;0.10;;;0.10;;
48871;SDS011;36154;51.674;7.824;2023-03-23T02:09:04;0.00;;;0.00;;
48871;SDS011;36154;51.674;7.824;2023-03-23T02:11:31;0.00;;;0.00;;
48871;SDS011;36154;51.674;7.824;2023-03-23T02:13:56;0.35;;;0.20;;
48871;SDS011;36154;51.674;7.824;2023-03-23T02:16:28;0.10;;;0.10;;
48871;SDS011;36154;51.674;7.824;2023-03-23T02:21:49;0.10;;;0.10;;
48871;SDS011;36154;51.674;7.824;2023-03-23T02:25:14;0.05;;;0.05;;
48871;SDS011;36154;51.674;7.824;2023-03-23T02:35:58;0.10;;;0.10;;
48871;SDS011;36154;51.674;7.824;2023-03-23T02:41:31;0.10;;;0.10;;
48871;SDS011;36154;51.674;7.824;2023-03-23T02:44:03;0.00;;;0.00;;
48871;SDS011;36154;51.674;7.824;2023-03-23T02:46:30;0.10;;;0.10;;
48871;SDS011;36154;51.674;7.824;2023-03-23T02:48:57;0.10;;;0.10;;
48871;SDS011;36154;51.674;7.824;2023-03-23T02:51:25;0.00;;;0.00;;
48871;SDS011;36154;51.674;7.824;2023-03-23T02:53:51;0.00;;;0.00;;
48871;SDS011;36154;51.674;7.824;2023-03-23T02:56:19;0.40;;;0.10;;
48871;SDS011;36154;51.674;7.824;2023-03-23T02:58:48;0.10;;;0.10;;
48871;SDS011;36154;51.674;7.824;2023-03-23T03:03:51;0.00;;;0.00;;
48871;SDS011;36154;51.674;7.824;2023-03-23T03:09:14;0.15;;;0.15;;
48871;SDS011;36154;51.674;7.824;2023-03-23T03:11:55;0.10;;;0.10;;
48871;SDS011;36154;51.674;7.824;2023-03-23T03:14:29;0.10;;;0.10;;
48871;SDS011;36154;51.674;7.824;2023-03-23T03:17:00;0.10;;;0.10;;
48871;SDS011;36154;51.674;7.824;2023-03-23T03:19:33;0.10;;;0.10;;
48871;SDS011;36154;51.674;7.824;2023-03-23T03:22:02;0.08;;;0.08;;
48871;SDS011;36154;51.674;7.824;2023-03-23T03:24:30;0.10;;;0.10;;
48871;SDS011;36154;51.674;7.824;2023-03-23T03:26:57;0.10;;;0.10;;
48871;SDS011;36154;51.674;7.824;2023-03-23T03:29:26;0.10;;;0.10;;
48871;SDS011;36154;51.674;7.824;2023-03-23T03:31:55;0.08;;;0.08;;
48871;SDS011;36154;51.674;7.824;2023-03-23T03:34:23;0.10;;;0.10;;
48871;SDS011;36154;51.674;7.824;2023-03-23T03:36:49;0.10;;;0.10;;
48871;SDS011;36154;51.674;7.824;2023-03-23T03:39:17;0.10;;;0.10;;
48871;SDS011;36154;51.674;7.824;2023-03-23T03:41:45;0.10;;;0.10;;
48871;SDS011;36154;51.674;7.824;2023-03-23T03:44:10;0.20;;;0.10;;
48871;SDS011;36154;51.674;7.824;2023-03-23T03:46:36;0.10;;;0.10;;
48871;SDS011;36154;51.674;7.824;2023-03-23T03:49:03;0.20;;;0.20;;
48871;SDS011;36154;51.674;7.824;2023-03-23T03:51:31;0.10;;;0.10;;
48871;SDS011;36154;51.674;7.824;2023-03-23T03:53:58;0.10;;;0.10;;
48871;SDS011;36154;51.674;7.824;2023-03-23T03:56:24;0.10;;;0.10;;
48871;SDS011;36154;51.674;7.824;2023-03-23T03:58:50;0.10;;;0.10;;
48871;SDS011;36154;51.674;7.824;2023-03-23T04:01:18;0.10;;;0.10;;
48871;SDS011;36154;51.674;7.824;2023-03-23T04:03:46;0.10;;;0.10;;
48871;SDS011;36154;51.674;7.824;2023-03-23T04:06:11;0.10;;;0.10;;
48871;SDS011;36154;51.674;7.824;2023-03-23T04:08:40;0.10;;;0.10;;
48871;SDS011;36154;51.674;7.824;2023-03-23T04:11:07;0.17;;;0.17;;
48871;SDS011;36154;51.674;7.824;2023-03-23T04:13:33;0.10;;;0.10;;
48871;SDS011;36154;51.674;7.824;2023-03-23T04:15:59;0.10;;;0.10;;
48871;SDS011;36154;51.674;7.824;2023-03-23T04:18:25;0.10;;;0.10;;
48871;SDS011;36154;51.674;7.824;2023-03-23T04:20:51;0.20;;;0.15;;
48871;SDS011;36154;51.674;7.824;2023-03-23T04:23:17;0.10;;;0.10;;
48871;SDS011;36154;51.674;7.824;2023-03-23T04:25:48;0.10;;;0.10;;
48871;SDS011;36154;51.674;7.824;2023-03-23T04:28:15;0.10;;;0.10;;
48871;SDS011;36154;51.674;7.824;2023-03-23T04:30:44;0.10;;;0.10;;
48871;SDS011;36154;51.674;7.824;2023-03-23T04:33:13;0.10;;;0.10;;
48871;SDS011;36154;51.674;7.824;2023-03-23T04:35:39;0.10;;;0.10;;
48871;SDS011;36154;51.674;7.824;2023-03-23T04:38:06;0.10;;;0.10;;
48871;SDS011;36154;51.674;7.824;2023-03-23T04:40:32;0.10;;;0.10;;
48871;SDS011;36154;51.674;7.824;2023-03-23T04:43:01;0.10;;;0.10;;
48871;SDS011;36154;51.674;7.824;2023-03-23T04:45:30;0.10;;;0.10;;
48871;SDS011;36154;51.674;7.824;2023-03-23T04:47:55;0.20;;;0.20;;
48871;SDS011;36154;51.674;7.824;2023-03-23T04:50:27;0.10;;;0.10;;
48871;SDS011;36154;51.674;7.824;2023-03-23T04:52:55;0.10;;;0.10;;
48871;SDS011;36154;51.674;7.824;2023-03-23T04:55:22;0.10;;;0.10;;
48871;SDS011;36154;51.674;7.824;2023-03-23T04:57:48;0.10;;;0.10;;
48871;SDS011;36154;51.674;7.824;2023-03-23T05:00:14;0.10;;;0.10;;
48871;SDS011;36154;51.674;7.824;2023-03-23T05:02:41;0.10;;;0.10;;
48871;SDS011;36154;51.674;7.824;2023-03-23T05:05:09;0.10;;;0.10;;
48871;SDS011;36154;51.674;7.824;2023-03-23T05:07:36;1.25;;;0.10;;
48871;SDS011;36154;51.674;7.824;2023-03-23T05:10:02;0.10;;;0.10;;
48871;SDS011;36154;51.674;7.824;2023-03-23T05:12:28;0.15;;;0.15;;
48871;SDS011;36154;51.674;7.824;2023-03-23T05:14:54;0.47;;;0.20;;
48871;SDS011;36154;51.674;7.824;2023-03-23T05:17:19;1.95;;;0.20;;
48871;SDS011;36154;51.674;7.824;2023-03-23T05:19:45;1.38;;;0.20;;
48871;SDS011;36154;51.674;7.824;2023-03-23T05:22:12;0.13;;;0.13;;
48871;SDS011;36154;51.674;7.824;2023-03-23T05:24:40;0.17;;;0.15;;
48871;SDS011;36154;51.674;7.824;2023-03-23T05:27:08;0.20;;;0.20;;
48871;SDS011;36154;51.674;7.824;2023-03-23T05:29:34;0.13;;;0.13;;
48871;SDS011;36154;51.674;7.824;2023-03-23T05:32:04;0.30;;;0.30;;
48871;SDS011;36154;51.674;7.824;2023-03-23T05:34:30;1.60;;;0.28;;
48871;SDS011;36154;51.674;7.824;2023-03-23T05:36:58;2.08;;;0.40;;
48871;SDS011;36154;51.674;7.824;2023-03-23T05:39:24;0.30;;;0.30;;
48871;SDS011;36154;51.674;7.824;2023-03-23T05:41:49;1.45;;;0.20;;
48871;SDS011;36154;51.674;7.824;2023-03-23T05:44:17;0.90;;;0.20;;
48871;SDS011;36154;51.674;7.824;2023-03-23T05:46:43;0.32;;;0.32;;
48871;SDS011;36154;51.674;7.824;2023-03-23T05:49:08;0.20;;;0.20;;
48871;SDS011;36154;51.674;7.824;2023-03-23T05:51:34;0.22;;;0.17;;
48871;SDS011;36154;51.674;7.824;2023-03-23T05:53:59;0.35;;;0.35;;
48871;SDS011;36154;51.674;7.824;2023-03-23T05:56:25;0.20;;;0.20;;
48871;SDS011;36154;51.674;7.824;2023-03-23T05:58:50;0.25;;;0.20;;
48871;SDS011;36154;51.674;7.824;2023-03-23T06:01:16;0.10;;;0.10;;
48871;SDS011;36154;51.674;7.824;2023-03-23T06:03:41;0.28;;;0.10;;
48871;SDS011;36154;51.674;7.824;2023-03-23T06:06:09;0.20;;;0.20;;
48871;SDS011;36154;51.674;7.824;2023-03-23T06:08:36;0.13;;;0.10;;
48871;SDS011;36154;51.674;7.824;2023-03-23T06:11:02;0.20;;;0.20;;
48871;SDS011;36154;51.674;7.824;2023-03-23T06:13:28;0.13;;;0.13;;
48871;SDS011;36154;51.674;7.824;2023-03-23T06:15:56;0.10;;;0.10;;
48871;SDS011;36154;51.674;7.824;2023-03-23T06:18:22;1.95;;;0.20;;
48871;SDS011;36154;51.674;7.824;2023-03-23T06:20:48;0.47;;;0.28;;
48871;SDS011;36154;51.674;7.824;2023-03-23T06:23:13;0.20;;;0.20;;
48871;SDS011;36154;51.674;7.824;2023-03-23T06:25:39;0.20;;;0.20;;
48871;SDS011;36154;51.674;7.824;2023-03-23T06:28:04;0.20;;;0.20;;
48871;SDS011;36154;51.674;7.824;2023-03-23T06:30:30;0.20;;;0.20;;
48871;SDS011;36154;51.674;7.824;2023-03-23T06:32:56;0.40;;;0.30;;
48871;SDS011;36154;51.674;7.824;2023-03-23T06:35:21;0.20;;;0.20;;
48871;SDS011;36154;51.674;7.824;2023-03-23T06:37:47;0.20;;;0.20;;
48871;SDS011;36154;51.674;7.824;2023-03-23T06:40:12;1.00;;;0.20;;
48871;SDS011;36154;51.674;7.824;2023-03-23T06:42:38;0.20;;;0.20;;
48871;SDS011;36154;51.674;7.824;2023-03-23T06:45:03;0.20;;;0.20;;
48871;SDS011;36154;51.674;7.824;2023-03-23T06:47:29;0.15;;;0.15;;
48871;SDS011;36154;51.674;7.824;2023-03-23T06:49:55;0.28;;;0.28;;
48871;SDS011;36154;51.674;7.824;2023-03-23T06:52:23;0.20;;;0.20;;
48871;SDS011;36154;51.674;7.824;2023-03-23T06:54:50;0.20;;;0.20;;
48871;SDS011;36154;51.674;7.824;2023-03-23T06:57:16;0.25;;;0.25;;
48871;SDS011;36154;51.674;7.824;2023-03-23T06:59:42;0.20;;;0.20;;
48871;SDS011;36154;51.674;7.824;2023-03-23T07:02:11;0.65;;;0.20;;
48871;SDS011;36154;51.674;7.824;2023-03-23T07:04:39;0.20;;;0.20;;
48871;SDS011;36154;51.674;7.824;2023-03-23T07:07:05;0.25;;;0.25;;
48871;SDS011;36154;51.674;7.824;2023-03-23T07:09:32;0.20;;;0.20;;
48871;SDS011;36154;51.674;7.824;2023-03-23T07:11:57;0.20;;;0.20;;
48871;SDS011;36154;51.674;7.824;2023-03-23T07:14:23;0.20;;;0.20;;
48871;SDS011;36154;51.674;7.824;2023-03-23T07:16:48;2.08;;;0.20;;
48871;SDS011;36154;51.674;7.824;2023-03-23T07:19:14;0.30;;;0.30;;
48871;SDS011;36154;51.674;7.824;2023-03-23T07:21:40;0.20;;;0.20;;
48871;SDS011;36154;51.674;7.824;2023-03-23T07:24:05;0.98;;;0.45;;
48871;SDS011;36154;51.674;7.824;2023-03-23T07:26:31;2.97;;;0.90;;
48871;SDS011;36154;51.674;7.824;2023-03-23T07:28:56;3.40;;;0.95;;
48871;SDS011;36154;51.674;7.824;2023-03-23T07:31:22;7.25;;;1.33;;
48871;SDS011;36154;51.674;7.824;2023-03-23T07:33:47;3.90;;;1.38;;
48871;SDS011;36154;51.674;7.824;2023-03-23T07:36:13;5.88;;;1.40;;
48871;SDS011;36154;51.674;7.824;2023-03-23T07:38:38;10.85;;;2.05;;
48871;SDS011;36154;51.674;7.824;2023-03-23T07:41:03;17.50;;;4.72;;
48871;SDS011;36154;51.674;7.824;2023-03-23T07:43:30;26.60;;;5.00;;
48871;SDS011;36154;51.674;7.824;2023-03-23T07:45:55;23.90;;;4.75;;
48871;SDS011;36154;51.674;7.824;2023-03-23T07:48:21;22.83;;;4.90;;
48871;SDS011;36154;51.674;7.824;2023-03-23T07:50:46;18.58;;;4.53;;
48871;SDS011;36154;51.674;7.824;2023-03-23T07:53:12;20.60;;;4.78;;
48871;SDS011;36154;51.674;7.824;2023-03-23T07:55:37;15.98;;;4.10;;
48871;SDS011;36154;51.674;7.824;2023-03-23T07:58:02;14.93;;;4.43;;
48871;SDS011;36154;51.674;7.824;2023-03-23T08:00:28;17.40;;;3.97;;
48871;SDS011;36154;51.674;7.824;2023-03-23T08:02:55;18.20;;;4.47;;
48871;SDS011;36154;51.674;7.824;2023-03-23T08:05:22;14.15;;;3.88;;
48871;SDS011;36154;51.674;7.824;2023-03-23T08:07:50;19.70;;;3.95;;
48871;SDS011;36154;51.674;7.824;2023-03-23T08:10:17;13.73;;;4.13;;
48871;SDS011;36154;51.674;7.824;2023-03-23T08:12:43;15.20;;;3.58;;
48871;SDS011;36154;51.674;7.824;2023-03-23T08:15:10;13.20;;;3.45;;
48871;SDS011;36154;51.674;7.824;2023-03-23T08:17:37;18.13;;;3.78;;
48871;SDS011;36154;51.674;7.824;2023-03-23T08:20:03;12.27;;;3.78;;
48871;SDS011;36154;51.674;7.824;2023-03-23T08:22:35;8.55;;;2.83;;
48871;SDS011;36154;51.674;7.824;2023-03-23T08:25:03;9.10;;;3.00;;
48871;SDS011;36154;51.674;7.824;2023-03-23T08:27:31;22.60;;;3.58;;
48871;SDS011;36154;51.674;7.824;2023-03-23T08:29:56;13.18;;;2.90;;
48871;SDS011;36154;51.674;7.824;2023-03-23T08:32:22;12.38;;;2.80;;
48871;SDS011;36154;51.674;7.824;2023-03-23T08:34:48;7.93;;;2.70;;
48871;SDS011;36154;51.674;7.824;2023-03-23T08:37:13;10.98;;;2.88;;
48871;SDS011;36154;51.674;7.824;2023-03-23T08:39:39;8.50;;;2.53;;
48871;SDS011;36154;51.674;7.824;2023-03-23T08:42:05;9.00;;;2.00;;
48871;SDS011;36154;51.674;7.824;2023-03-23T08:44:30;7.22;;;1.30;;
48871;SDS011;36154;51.674;7.824;2023-03-23T08:46:55;3.75;;;1.45;;
48871;SDS011;36154;51.674;7.824;2023-03-23T08:49:22;4.03;;;1.30;;
48871;SDS011;36154;51.674;7.824;2023-03-23T08:51:48;4.10;;;1.50;;
48871;SDS011;36154;51.674;7.824;2023-03-23T08:54:13;3.40;;;1.35;;
48871;SDS011;36154;51.674;7.824;2023-03-23T08:56:38;3.95;;;1.85;;
48871;SDS011;36154;51.674;7.824;2023-03-23T08:59:04;5.63;;;1.60;;
48871;SDS011;36154;51.674;7.824;2023-03-23T09:01:29;5.05;;;1.77;;
48871;SDS011;36154;51.674;7.824;2023-03-23T09:03:55;9.40;;;1.98;;
48871;SDS011;36154;51.674;7.824;2023-03-23T09:06:20;5.43;;;1.73;;
48871;SDS011;36154;51.674;7.824;2023-03-23T09:08:46;2.83;;;1.38;;
48871;SDS011;36154;51.674;7.824;2023-03-23T09:11:11;5.85;;;1.60;;
48871;SDS011;36154;51.674;7.824;2023-03-23T09:13:37;4.88;;;1.63;;
48871;SDS011;36154;51.674;7.824;2023-03-23T09:16:04;5.25;;;1.52;;
48871;SDS011;36154;51.674;7.824;2023-03-23T09:18:31;3.53;;;1.27;;
48871;SDS011;36154;51.674;7.824;2023-03-23T09:20:58;3.67;;;1.33;;
48871;SDS011;36154;51.674;7.824;2023-03-23T09:23:24;6.30;;;1.98;;
48871;SDS011;36154;51.674;7.824;2023-03-23T09:25:50;5.78;;;1.85;;
48871;SDS011;36154;51.674;7.824;2023-03-23T09:28:17;3.88;;;1.45;;
48871;SDS011;36154;51.674;7.824;2023-03-23T09:30:43;9.90;;;1.48;;
48871;SDS011;36154;51.674;7.824;2023-03-23T09:33:09;3.38;;;1.50;;
48871;SDS011;36154;51.674;7.824;2023-03-23T09:35:35;7.25;;;1.88;;
48871;SDS011;36154;51.674;7.824;2023-03-23T09:38:03;5.97;;;1.50;;
48871;SDS011;36154;51.674;7.824;2023-03-23T09:50:41;2.55;;;1.38;;
48871;SDS011;36154;51.674;7.824;2023-03-23T09:53:20;3.30;;;1.58;;
48871;SDS011;36154;51.674;7.824;2023-03-23T09:55:49;5.85;;;1.50;;
48871;SDS011;36154;51.674;7.824;2023-03-23T10:00:54;2.95;;;1.38;;
48871;SDS011;36154;51.674;7.824;2023-03-23T10:03:23;2.30;;;1.30;;
48871;SDS011;36154;51.674;7.824;2023-03-23T10:05:53;6.70;;;1.50;;
48871;SDS011;36154;51.674;7.824;2023-03-23T10:08:21;2.63;;;1.30;;
48871;SDS011;36154;51.674;7.824;2023-03-23T10:10:52;3.45;;;1.00;;
48871;SDS011;36154;51.674;7.824;2023-03-23T10:13:42;2.47;;;1.02;;
48871;SDS011;36154;51.674;7.824;2023-03-23T10:16:25;2.85;;;1.25;;
48871;SDS011;36154;51.674;7.824;2023-03-23T10:18:57;3.72;;;1.48;;
48871;SDS011;36154;51.674;7.824;2023-03-23T10:21:29;2.28;;;1.30;;
48871;SDS011;36154;51.674;7.824;2023-03-23T10:24:00;2.08;;;0.75;;
48871;SDS011;36154;51.674;7.824;2023-03-23T10:26:35;1.25;;;0.70;;
48871;SDS011;36154;51.674;7.824;2023-03-23T10:29:17;4.97;;;1.30;;
48871;SDS011;36154;51.674;7.824;2023-03-23T10:31:50;0.95;;;0.93;;
48871;SDS011;36154;51.674;7.824;2023-03-23T10:36:52;1.98;;;1.20;;
48871;SDS011;36154;51.674;7.824;2023-03-23T10:39:31;1.80;;;0.85;;
48871;SDS011;36154;51.674;7.824;2023-03-23T10:42:03;1.30;;;0.90;;
48871;SDS011;36154;51.674;7.824;2023-03-23T10:44:32;2.00;;;0.90;;
48871;SDS011;36154;51.674;7.824;2023-03-23T10:47:02;2.70;;;0.70;;
48871;SDS011;36154;51.674;7.824;2023-03-23T10:49:32;2.17;;;0.80;;
48871;SDS011;36154;51.674;7.824;2023-03-23T10:52:06;1.00;;;0.77;;
48871;SDS011;36154;51.674;7.824;2023-03-23T10:54:38;1.55;;;0.63;;
48871;SDS011;36154;51.674;7.824;2023-03-23T10:57:25;1.85;;;0.95;;
48871;SDS011;36154;51.674;7.824;2023-03-23T11:02:30;1.10;;;0.77;;
48871;SDS011;36154;51.674;7.824;2023-03-23T11:05:01;0.85;;;0.65;;
48871;SDS011;36154;51.674;7.824;2023-03-23T11:07:31;2.63;;;1.00;;
48871;SDS011;36154;51.674;7.824;2023-03-23T11:10:05;2.70;;;0.50;;
48871;SDS011;36154;51.674;7.824;2023-03-23T11:12:34;7.00;;;1.25;;
48871;SDS011;36154;51.674;7.824;2023-03-23T11:15:18;4.68;;;0.90;;
48871;SDS011;36154;51.674;7.824;2023-03-23T11:17:54;1.58;;;0.50;;
48871;SDS011;36154;51.674;7.824;2023-03-23T11:20:25;6.30;;;1.08;;
48871;SDS011;36154;51.674;7.824;2023-03-23T11:22:53;1.30;;;0.60;;
48871;SDS011;36154;51.674;7.824;2023-03-23T11:25:19;2.85;;;0.93;;
48871;SDS011;36154;51.674;7.824;2023-03-23T11:27:44;4.63;;;0.68;;
48871;SDS011;36154;51.674;7.824;2023-03-23T11:30:18;1.50;;;0.50;;
48871;SDS011;36154;51.674;7.824;2023-03-23T11:32:48;2.65;;;0.80;;
48871;SDS011;36154;51.674;7.824;2023-03-23T11:35:22;1.38;;;0.82;;
48871;SDS011;36154;51.674;7.824;2023-03-23T11:37:54;0.80;;;0.75;;
48871;SDS011;36154;51.674;7.824;2023-03-23T11:40:29;2.10;;;0.60;;
48871;SDS011;36154;51.674;7.824;2023-03-23T11:43:00;1.00;;;0.60;;
48871;SDS011;36154;51.674;7.824;2023-03-23T11:45:36;1.42;;;0.70;;
48871;SDS011;36154;51.674;7.824;2023-03-23T11:51:05;4.28;;;0.57;;
48871;SDS011;36154;51.674;7.824;2023-03-23T11:54:00;1.25;;;0.60;;
48871;SDS011;36154;51.674;7.824;2023-03-23T11:56:34;2.60;;;0.55;;
48871;SDS011;36154;51.674;7.824;2023-03-23T11:59:01;1.42;;;0.40;;
48871;SDS011;36154;51.674;7.824;2023-03-23T12:15:47;0.75;;;0.10;;
48871;SDS011;36154;51.674;7.824;2023-03-23T12:21:21;0.25;;;0.20;;
48871;SDS011;36154;51.674;7.824;2023-03-23T12:35:32;3.28;;;1.02;;
48871;SDS011;36154;51.674;7.824;2023-03-23T12:41:15;1.05;;;0.75;;
48871;SDS011;36154;51.674;7.824;2023-03-23T12:43:47;2.30;;;0.50;;
48871;SDS011;36154;51.674;7.824;2023-03-23T12:49:02;0.95;;;0.60;;
48871;SDS011;36154;51.674;7.824;2023-03-23T12:51:51;4.88;;;0.57;;
48871;SDS011;36154;51.674;7.824;2023-03-23T12:54:32;1.75;;;0.60;;
48871;SDS011;36154;51.674;7.824;2023-03-23T12:59:40;8.05;;;2.50;;
48871;SDS011;36154;51.674;7.824;2023-03-23T13:07:32;9.38;;;2.10;;
48871;SDS011;36154;51.674;7.824;2023-03-23T13:10:21;8.45;;;2.10;;
48871;SDS011;36154;51.674;7.824;2023-03-23T13:12:49;3.72;;;1.52;;
48871;SDS011;36154;51.674;7.824;2023-03-23T13:15:34;6.65;;;1.90;;
48871;SDS011;36154;51.674;7.824;2023-03-23T13:20:54;5.50;;;2.40;;
48871;SDS011;36154;51.674;7.824;2023-03-23T13:23:37;4.47;;;1.58;;
48871;SDS011;36154;51.674;7.824;2023-03-23T13:26:13;7.47;;;1.98;;
48871;SDS011;36154;51.674;7.824;2023-03-23T13:31:31;2.75;;;1.98;;
48871;SDS011;36154;51.674;7.824;2023-03-23T13:34:02;3.83;;;1.60;;
48871;SDS011;36154;51.674;7.824;2023-03-23T13:36:33;2.28;;;1.50;;
48871;SDS011;36154;51.674;7.824;2023-03-23T13:39:05;3.78;;;1.20;;
48871;SDS011;36154;51.674;7.824;2023-03-23T13:41:45;4.88;;;1.50;;
48871;SDS011;36154;51.674;7.824;2023-03-23T13:44:24;1.75;;;1.38;;
48871;SDS011;36154;51.674;7.824;2023-03-23T13:46:53;5.22;;;1.27;;
48871;SDS011;36154;51.674;7.824;2023-03-23T13:49:21;7.30;;;1.35;;
48871;SDS011;36154;51.674;7.824;2023-03-23T13:54:41;1.87;;;1.00;;
48871;SDS011;36154;51.674;7.824;2023-03-23T14:03:31;1.80;;;0.73;;
48871;SDS011;36154;51.674;7.824;2023-03-23T14:06:02;1.77;;;1.30;;
48871;SDS011;36154;51.674;7.824;2023-03-23T14:11:00;2.90;;;1.20;;
48871;SDS011;36154;51.674;7.824;2023-03-23T14:16:13;2.97;;;1.20;;
48871;SDS011;36154;51.674;7.824;2023-03-23T14:18:41;2.25;;;0.90;;
48871;SDS011;36154;51.674;7.824;2023-03-23T14:21:16;1.63;;;0.80;;
48871;SDS011;36154;51.674;7.824;2023-03-23T14:23:42;1.70;;;0.77;;
48871;SDS011;36154;51.674;7.824;2023-03-23T14:26:12;1.55;;;1.00;;
48871;SDS011;36154;51.674;7.824;2023-03-23T14:31:14;0.70;;;0.70;;
48871;SDS011;36154;51.674;7.824;2023-03-23T14:33:43;0.73;;;0.70;;
48871;SDS011;36154;51.674;7.824;2023-03-23T14:36:09;1.42;;;0.80;;
48871;SDS011;36154;51.674;7.824;2023-03-23T14:38:35;1.63;;;0.77;;
48871;SDS011;36154;51.674;7.824;2023-03-23T14:41:04;2.53;;;0.98;;
48871;SDS011;36154;51.674;7.824;2023-03-23T14:43:30;1.70;;;0.85;;
48871;SDS011;36154;51.674;7.824;2023-03-23T14:46:00;0.90;;;0.60;;
48871;SDS011;36154;51.674;7.824;2023-03-23T14:48:27;1.42;;;0.75;;
48871;SDS011;36154;51.674;7.824;2023-03-23T14:51:00;1.05;;;0.70;;
48871;SDS011;36154;51.674;7.824;2023-03-23T14:53:33;1.20;;;0.80;;
48871;SDS011;36154;51.674;7.824;2023-03-23T14:56:06;1.02;;;0.60;;
48871;SDS011;36154;51.674;7.824;2023-03-23T14:58:45;0.68;;;0.65;;
48871;SDS011;36154;51.674;7.824;2023-03-23T15:01:17;1.63;;;0.60;;
48871;SDS011;36154;51.674;7.824;2023-03-23T15:03:58;0.90;;;0.82;;
48871;SDS011;36154;51.674;7.824;2023-03-23T15:06:26;0.47;;;0.47;;
48871;SDS011;36154;51.674;7.824;2023-03-23T15:08:54;0.95;;;0.70;;
48871;SDS011;36154;51.674;7.824;2023-03-23T15:11:28;0.73;;;0.40;;
48871;SDS011;36154;51.674;7.824;2023-03-23T15:13:57;0.77;;;0.68;;
48871;SDS011;36154;51.674;7.824;2023-03-23T15:16:31;0.73;;;0.60;;
48871;SDS011;36154;51.674;7.824;2023-03-23T15:19:05;1.27;;;0.60;;
48871;SDS011;36154;51.674;7.824;2023-03-23T15:21:46;0.80;;;0.70;;
48871;SDS011;36154;51.674;7.824;2023-03-23T15:25:03;1.40;;;0.77;;
48871;SDS011;36154;51.674;7.824;2023-03-23T15:29:34;0.47;;;0.47;;
48871;SDS011;36154;51.674;7.824;2023-03-23T15:32:31;1.27;;;0.65;;
48871;SDS011;36154;51.674;7.824;2023-03-23T15:35:04;0.55;;;0.55;;
48871;SDS011;36154;51.674;7.824;2023-03-23T15:37:49;2.92;;;0.70;;
48871;SDS011;36154;51.674;7.824;2023-03-23T15:40:18;0.50;;;0.50;;
48871;SDS011;36154;51.674;7.824;2023-03-23T15:42:46;0.70;;;0.60;;
48871;SDS011;36154;51.674;7.824;2023-03-23T15:47:43;0.60;;;0.60;;
48871;SDS011;36154;51.674;7.824;2023-03-23T15:52:36;0.40;;;0.40;;
48871;SDS011;36154;51.674;7.824;2023-03-23T15:55:02;0.55;;;0.55;;
48871;SDS011;36154;51.674;7.824;2023-03-23T15:57:27;0.77;;;0.68;;
48871;SDS011;36154;51.674;7.824;2023-03-23T15:59:53;0.73;;;0.50;;
48871;SDS011;36154;51.674;7.824;2023-03-23T16:02:20;0.50;;;0.50;;
48871;SDS011;36154;51.674;7.824;2023-03-23T16:04:48;0.75;;;0.65;;
48871;SDS011;36154;51.674;7.824;2023-03-23T16:07:15;0.75;;;0.60;;
48871;SDS011;36154;51.674;7.824;2023-03-23T16:09:41;0.52;;;0.50;;
48871;SDS011;36154;51.674;7.824;2023-03-23T16:12:12;0.40;;;0.40;;
48871;SDS011;36154;51.674;7.824;2023-03-23T16:14:38;0.50;;;0.50;;
48871;SDS011;36154;51.674;7.824;2023-03-23T16:17:04;1.02;;;0.57;;
48871;SDS011;36154;51.674;7.824;2023-03-23T16:19:30;0.55;;;0.43;;
48871;SDS011;36154;51.674;7.824;2023-03-23T16:21:55;0.70;;;0.40;;
48871;SDS011;36154;51.674;7.824;2023-03-23T16:24:21;0.77;;;0.40;;
48871;SDS011;36154;51.674;7.824;2023-03-23T16:26:46;0.45;;;0.40;;
48871;SDS011;36154;51.674;7.824;2023-03-23T16:29:12;0.60;;;0.60;;
48871;SDS011;36154;51.674;7.824;2023-03-23T16:31:39;0.90;;;0.50;;
48871;SDS011;36154;51.674;7.824;2023-03-23T16:34:04;1.15;;;0.50;;
48871;SDS011;36154;51.674;7.824;2023-03-23T16:36:31;0.40;;;0.40;;
48871;SDS011;36154;51.674;7.824;2023-03-23T16:38:56;0.43;;;0.30;;
48871;SDS011;36154;51.674;7.824;2023-03-23T16:41:23;0.50;;;0.50;;
48871;SDS011;36154;51.674;7.824;2023-03-23T16:43:49;0.40;;;0.40;;
48871;SDS011;36154;51.674;7.824;2023-03-23T16:46:14;0.57;;;0.40;;
48871;SDS011;36154;51.674;7.824;2023-03-23T16:48:40;2.75;;;0.50;;
48871;SDS011;36154;51.674;7.824;2023-03-23T16:51:05;2.05;;;0.40;;
48871;SDS011;36154;51.674;7.824;2023-03-23T16:53:31;0.80;;;0.50;;
48871;SDS011;36154;51.674;7.824;2023-03-23T16:55:56;0.60;;;0.60;;